createdAt,value
2017-05-25T00:01:41.962Z,5.56
2017-05-25T00:04:09.141Z,4.32
2017-05-25T00:06:36.306Z,3.33
2017-05-25T00:09:04.010Z,6.60
2017-05-25T00:11:31.257Z,4.58
2017-05-25T00:13:58.405Z,5.23
2017-05-25T00:16:25.583Z,6.74
2017-05-25T00:18:52.773Z,4.20
2017-05-25T00:21:19.971Z,4.13
2017-05-25T00:23:47.124Z,4.37
2017-05-25T00:26:14.304Z,7.50
2017-05-25T00:28:41.488Z,4.02
2017-05-25T00:31:08.680Z,7.70
2017-05-25T00:33:35.872Z,5.35
2017-05-25T00:36:03.040Z,4.33
2017-05-25T00:38:30.569Z,6.42
2017-05-25T00:40:57.753Z,7.15
2017-05-25T00:43:24.937Z,6.70
2017-05-25T00:45:52.175Z,5.57
2017-05-25T00:48:19.351Z,6.45
2017-05-25T00:50:46.622Z,5.18
2017-05-25T00:53:14.010Z,4.72
2017-05-25T00:55:41.848Z,5.50
2017-05-25T00:58:09.056Z,5.07
2017-05-25T01:00:36.287Z,4.80
2017-05-25T01:03:03.505Z,5.73
2017-05-25T01:05:30.676Z,6.42
2017-05-25T01:07:58.210Z,8.07
2017-05-25T01:10:25.746Z,9.42
2017-05-25T01:12:52.923Z,6.33
2017-05-25T01:15:20.102Z,5.32
2017-05-25T01:17:47.311Z,5.87
2017-05-25T01:20:14.563Z,6.62
2017-05-25T01:22:41.878Z,7.92
2017-05-25T01:25:09.052Z,6.92
2017-05-25T01:27:36.203Z,6.27
2017-05-25T01:30:03.521Z,6.92
2017-05-25T01:32:30.693Z,6.48
2017-05-25T01:34:57.884Z,5.84
2017-05-25T01:37:25.056Z,6.80
2017-05-25T01:39:52.649Z,5.90
2017-05-25T01:42:19.995Z,6.22
2017-05-25T01:44:47.249Z,7.90
2017-05-25T01:47:14.618Z,6.98
2017-05-25T01:49:41.922Z,7.52
2017-05-25T01:52:09.146Z,6.17
2017-05-25T01:54:36.356Z,7.23
2017-05-25T01:57:03.532Z,5.95
2017-05-25T01:59:30.716Z,6.00
2017-05-25T02:01:57.892Z,5.60
2017-05-25T02:04:25.157Z,5.85
2017-05-25T02:06:52.333Z,6.55
2017-05-25T02:09:20.457Z,5.75
2017-05-25T02:11:47.697Z,5.45
2017-05-25T02:14:14.969Z,8.32
2017-05-25T02:16:42.659Z,6.52
2017-05-25T02:19:09.823Z,6.22
2017-05-25T02:21:36.998Z,6.22
2017-05-25T02:24:04.171Z,8.12
2017-05-25T02:26:31.333Z,7.63
2017-05-25T02:28:58.514Z,6.17
2017-05-25T02:31:25.687Z,6.20
2017-05-25T02:33:52.963Z,6.82
2017-05-25T02:36:20.132Z,7.12
2017-05-25T02:38:47.304Z,7.62
2017-05-25T02:41:14.576Z,7.42
2017-05-25T02:43:41.766Z,7.80
2017-05-25T02:46:09.045Z,7.30
2017-05-25T02:48:36.297Z,7.73
2017-05-25T02:51:03.580Z,8.50
2017-05-25T02:53:31.158Z,6.52
2017-05-25T02:55:58.367Z,7.48
2017-05-25T02:58:25.598Z,6.98
2017-05-25T03:00:52.872Z,8.95
2017-05-25T03:03:20.176Z,7.54
2017-05-25T03:05:47.348Z,7.43
2017-05-25T03:08:14.542Z,7.12
2017-05-25T03:10:42.227Z,8.38
2017-05-25T03:13:10.140Z,7.87
2017-05-25T03:15:38.127Z,7.67
2017-05-25T03:18:05.320Z,8.48
2017-05-25T03:20:32.601Z,9.70
2017-05-25T03:22:59.754Z,9.15
2017-05-25T03:25:26.932Z,8.52
2017-05-25T03:27:54.073Z,8.80
2017-05-25T03:30:21.719Z,10.33
2017-05-25T03:32:48.891Z,8.97
2017-05-25T03:35:16.055Z,8.67
2017-05-25T03:37:43.256Z,10.57
2017-05-25T03:40:10.491Z,9.70
2017-05-25T03:42:37.664Z,8.73
2017-05-25T03:45:04.934Z,8.92
2017-05-25T03:47:32.108Z,8.92
2017-05-25T03:49:59.273Z,8.72
2017-05-25T03:52:26.432Z,10.55
2017-05-25T03:54:53.597Z,10.74
2017-05-25T03:57:20.769Z,8.80
2017-05-25T03:59:48.401Z,10.12
2017-05-25T04:02:16.191Z,9.83
2017-05-25T04:04:43.980Z,9.35
2017-05-25T04:07:11.172Z,8.92
2017-05-25T04:09:38.338Z,8.62
2017-05-25T04:12:05.545Z,8.32
2017-05-25T04:14:32.793Z,8.75
2017-05-25T04:16:59.972Z,8.35
2017-05-25T04:19:27.145Z,9.10
2017-05-25T04:21:54.300Z,10.55
2017-05-25T04:24:21.486Z,8.90
2017-05-25T04:26:48.698Z,9.22
2017-05-25T04:29:15.870Z,8.65
2017-05-25T04:31:43.052Z,8.68
2017-05-25T04:34:10.224Z,8.10
2017-05-25T04:36:37.407Z,9.28
2017-05-25T04:39:04.563Z,8.27
2017-05-25T04:41:31.833Z,8.06
2017-05-25T04:43:58.998Z,8.14
2017-05-25T04:46:26.194Z,8.02
2017-05-25T04:48:53.452Z,9.63
2017-05-25T04:51:20.646Z,8.83
2017-05-25T04:53:47.802Z,10.30
2017-05-25T04:56:14.975Z,8.60
2017-05-25T04:58:42.142Z,9.07
2017-05-25T05:01:09.314Z,8.98
2017-05-25T05:03:36.475Z,7.98
2017-05-25T05:06:04.084Z,8.20
2017-05-25T05:08:31.275Z,10.15
2017-05-25T05:10:58.460Z,7.85
2017-05-25T05:13:25.619Z,8.20
2017-05-25T05:15:52.772Z,7.86
2017-05-25T05:18:19.952Z,8.42
2017-05-25T05:20:47.133Z,8.12
2017-05-25T05:23:14.319Z,8.42
2017-05-25T05:25:41.478Z,9.55
2017-05-25T05:28:09.149Z,9.13
2017-05-25T05:30:36.320Z,8.50
2017-05-25T05:33:03.482Z,8.12
2017-05-25T05:35:30.638Z,8.65
2017-05-25T05:37:57.913Z,7.90
2017-05-25T05:40:25.095Z,9.52
2017-05-25T05:42:52.363Z,9.13
2017-05-25T05:45:19.633Z,11.40
2017-05-25T05:47:46.907Z,8.93
2017-05-25T05:50:14.086Z,8.48
2017-05-25T05:52:41.259Z,11.13
2017-05-25T05:55:08.504Z,9.58
2017-05-25T05:57:35.702Z,10.48
2017-05-25T06:00:02.966Z,8.97
2017-05-25T06:02:30.122Z,9.17
2017-05-25T06:04:57.318Z,8.57
2017-05-25T06:07:24.482Z,8.93
2017-05-25T06:09:51.707Z,10.60
2017-05-25T06:12:33.866Z,8.97
2017-05-25T06:15:01.120Z,9.10
2017-05-25T06:17:28.320Z,10.85
2017-05-25T06:19:55.775Z,8.77
2017-05-25T06:22:22.971Z,9.80
2017-05-25T06:24:50.137Z,9.22
2017-05-25T06:27:17.320Z,8.95
2017-05-25T06:29:44.582Z,10.62
2017-05-25T06:32:11.770Z,8.20
2017-05-25T06:34:38.950Z,9.60
2017-05-25T06:37:06.722Z,10.78
2017-05-25T06:39:33.886Z,9.38
2017-05-25T06:42:01.494Z,10.93
2017-05-25T06:44:29.201Z,9.62
2017-05-25T06:46:56.361Z,10.80
2017-05-25T06:49:23.537Z,11.35
2017-05-25T06:51:50.868Z,15.83
2017-05-25T06:54:18.049Z,13.15
2017-05-25T06:56:45.310Z,9.60
2017-05-25T06:59:12.509Z,9.40
2017-05-25T07:01:39.975Z,9.82
2017-05-25T07:04:07.238Z,9.82
2017-05-25T07:06:34.405Z,14.70
2017-05-25T07:09:01.571Z,11.60
2017-05-25T07:11:29.157Z,12.78
2017-05-25T07:13:56.438Z,13.17
2017-05-25T07:16:23.815Z,11.58
2017-05-25T07:18:51.038Z,12.72
2017-05-25T07:21:18.260Z,11.22
2017-05-25T07:23:45.470Z,11.20
2017-05-25T07:26:12.709Z,11.15
2017-05-25T07:28:40.216Z,13.25
2017-05-25T07:31:07.461Z,11.88
2017-05-25T07:33:34.641Z,12.43
2017-05-25T07:36:01.908Z,12.93
2017-05-25T07:38:29.180Z,12.00
2017-05-25T07:40:56.398Z,16.77
2017-05-25T07:43:23.937Z,15.23
2017-05-25T07:45:51.808Z,15.47
2017-05-25T07:48:19.034Z,14.57
2017-05-25T07:50:46.263Z,12.90
2017-05-25T07:53:13.543Z,12.65
2017-05-25T07:55:40.712Z,12.50
2017-05-25T07:58:07.881Z,13.08
2017-05-25T08:00:35.163Z,12.72
2017-05-25T08:03:02.366Z,13.80
2017-05-25T08:05:29.586Z,12.90
2017-05-25T08:07:56.883Z,12.93
2017-05-25T08:10:24.359Z,13.05
2017-05-25T08:12:51.553Z,12.77
2017-05-25T08:15:18.737Z,11.80
2017-05-25T08:17:45.980Z,11.22
2017-05-25T08:20:13.224Z,11.12
2017-05-25T08:22:41.026Z,11.62
2017-05-25T08:25:08.226Z,10.72
2017-05-25T08:27:35.408Z,10.66
2017-05-25T08:30:02.656Z,9.98
2017-05-25T08:32:29.831Z,11.02
2017-05-25T08:34:57.096Z,10.85
2017-05-25T08:37:24.375Z,10.98
2017-05-25T08:39:51.546Z,10.28
2017-05-25T08:42:18.822Z,9.53
2017-05-25T08:44:45.996Z,11.00
2017-05-25T08:47:13.545Z,8.84
2017-05-25T08:49:40.747Z,9.42
2017-05-25T08:52:07.961Z,9.88
2017-05-25T08:54:35.108Z,9.33
2017-05-25T08:57:02.308Z,9.58
2017-05-25T08:59:29.492Z,13.03
2017-05-25T09:01:56.708Z,11.85
2017-05-25T09:04:24.562Z,11.23
2017-05-25T09:06:51.766Z,11.38
2017-05-25T09:09:18.929Z,13.77
2017-05-25T09:11:46.103Z,11.50
2017-05-25T09:14:13.366Z,11.77
2017-05-25T09:16:40.590Z,12.98
2017-05-25T09:19:07.919Z,11.40
2017-05-25T09:21:35.173Z,12.10
2017-05-25T09:24:02.392Z,12.23
2017-05-25T09:26:29.642Z,11.40
2017-05-25T09:28:56.897Z,10.70
2017-05-25T09:31:24.111Z,10.80
2017-05-25T09:33:51.376Z,11.73
2017-05-25T09:36:18.654Z,11.50
2017-05-25T09:38:45.864Z,12.00
2017-05-25T09:41:13.058Z,11.03
2017-05-25T09:43:40.576Z,11.38
2017-05-25T09:46:08.056Z,11.43
2017-05-25T09:48:35.275Z,12.10
2017-05-25T09:51:02.510Z,12.43
2017-05-25T09:53:30.393Z,12.07
2017-05-25T09:55:57.665Z,13.90
2017-05-25T09:58:24.888Z,14.60
2017-05-25T10:00:52.211Z,15.12
2017-05-25T10:03:19.439Z,14.10
2017-05-25T10:05:46.599Z,15.13
2017-05-25T10:08:13.931Z,14.00
2017-05-25T10:10:41.734Z,14.60
2017-05-25T10:13:08.916Z,15.30
2017-05-25T10:15:36.063Z,15.77
2017-05-25T10:18:03.264Z,11.70
2017-05-25T10:20:30.453Z,13.13
2017-05-25T10:22:57.743Z,12.80
2017-05-25T10:25:24.952Z,11.98
2017-05-25T10:27:52.142Z,12.33
2017-05-25T10:30:19.317Z,12.42
2017-05-25T10:32:46.572Z,12.60
2017-05-25T10:35:13.848Z,13.18
2017-05-25T10:37:41.034Z,14.00
2017-05-25T10:40:08.216Z,13.60
2017-05-25T10:42:35.409Z,13.64
2017-05-25T10:45:02.612Z,11.62
2017-05-25T10:47:29.960Z,11.60
2017-05-25T10:49:57.186Z,11.52
2017-05-25T10:52:24.869Z,11.27
2017-05-25T10:54:52.039Z,12.78
2017-05-25T10:57:20.402Z,11.48
2017-05-25T10:59:47.582Z,10.90
2017-05-25T11:02:15.278Z,10.52
2017-05-25T11:04:42.574Z,10.78
2017-05-25T11:07:10.921Z,11.33
2017-05-25T11:09:38.241Z,9.88
2017-05-25T11:12:05.408Z,9.60
2017-05-25T11:14:32.622Z,8.23
2017-05-25T11:17:00.170Z,8.50
2017-05-25T11:19:27.348Z,7.98
2017-05-25T11:21:54.557Z,8.12
2017-05-25T11:24:21.734Z,8.60
2017-05-25T11:26:50.051Z,8.43
2017-05-25T11:29:17.232Z,7.42
2017-05-25T11:31:44.443Z,8.92
2017-05-25T11:34:11.702Z,8.75
2017-05-25T11:36:39.794Z,8.42
2017-05-25T11:39:07.006Z,8.67
2017-05-25T11:41:34.180Z,8.82
2017-05-25T11:44:01.820Z,8.65
2017-05-25T11:46:29.106Z,8.45
2017-05-25T11:48:56.282Z,9.73
2017-05-25T11:51:23.489Z,9.93
2017-05-25T11:53:50.673Z,9.48
2017-05-25T11:56:17.837Z,9.28
2017-05-25T11:58:45.143Z,9.37
2017-05-25T12:01:12.928Z,9.88
2017-05-25T12:03:40.311Z,9.57
2017-05-25T12:06:07.534Z,9.83
2017-05-25T12:08:34.773Z,9.52
2017-05-25T12:11:02.043Z,8.63
2017-05-25T12:13:29.315Z,8.58
2017-05-25T12:15:56.590Z,8.15
2017-05-25T12:18:23.788Z,13.12
2017-05-25T12:20:50.982Z,7.65
2017-05-25T12:23:18.210Z,7.07
2017-05-25T12:25:45.792Z,7.48
2017-05-25T12:28:13.065Z,8.30
2017-05-25T12:30:40.222Z,9.17
2017-05-25T12:33:07.510Z,10.58
2017-05-25T12:35:34.687Z,9.52
2017-05-25T12:38:01.875Z,6.03
2017-05-25T12:40:29.127Z,7.83
2017-05-25T12:42:56.340Z,8.08
2017-05-25T12:45:23.532Z,7.58
2017-05-25T12:47:50.740Z,8.00
2017-05-25T12:50:17.924Z,8.92
2017-05-25T12:52:45.196Z,9.50
2017-05-25T12:55:12.437Z,8.28
2017-05-25T12:57:40.047Z,9.97
2017-05-25T13:00:07.322Z,9.00
2017-05-25T13:02:35.151Z,7.20
2017-05-25T13:05:02.483Z,7.75
2017-05-25T13:07:29.660Z,7.00
2017-05-25T13:09:57.135Z,5.92
2017-05-25T13:12:24.345Z,5.80
2017-05-25T13:14:51.564Z,5.08
2017-05-25T13:17:18.856Z,4.95
2017-05-25T13:19:46.675Z,4.32
2017-05-25T13:22:13.877Z,4.62
2017-05-25T13:24:41.188Z,4.88
2017-05-25T13:27:08.419Z,4.58
2017-05-25T13:29:35.736Z,4.07
2017-05-25T13:32:03.114Z,4.45
2017-05-25T13:34:30.367Z,4.17
2017-05-25T13:36:57.577Z,4.02
2017-05-25T13:39:24.835Z,4.10
2017-05-25T13:41:52.011Z,4.87
2017-05-25T13:44:19.284Z,5.05
2017-05-25T13:46:46.463Z,5.10
2017-05-25T13:49:13.686Z,5.17
2017-05-25T13:51:40.882Z,5.37
2017-05-25T13:54:08.074Z,6.00
2017-05-25T13:56:35.345Z,6.12
2017-05-25T13:59:02.566Z,5.00
2017-05-25T14:01:29.803Z,5.20
2017-05-25T14:03:57.005Z,5.47
2017-05-25T14:06:24.190Z,5.82
2017-05-25T14:08:52.008Z,6.27
2017-05-25T14:11:19.261Z,6.90
2017-05-25T14:13:46.570Z,6.65
2017-05-25T14:16:13.752Z,6.70
2017-05-25T14:18:40.919Z,7.22
2017-05-25T14:21:08.157Z,7.55
2017-05-25T14:23:35.361Z,6.83
2017-05-25T14:26:02.566Z,7.02
2017-05-25T14:28:29.809Z,7.07
2017-05-25T14:30:57.002Z,7.88
2017-05-25T14:33:24.257Z,6.88
2017-05-25T14:35:51.434Z,7.27
2017-05-25T14:38:18.638Z,7.30
2017-05-25T14:40:45.822Z,6.60
2017-05-25T14:43:13.587Z,6.90
2017-05-25T14:45:40.860Z,6.40
2017-05-25T14:48:08.027Z,6.66
2017-05-25T14:50:36.238Z,5.88
2017-05-25T14:53:03.410Z,5.17
2017-05-25T14:55:31.644Z,5.93
2017-05-25T14:57:58.805Z,5.28
2017-05-25T15:00:26.110Z,5.10
2017-05-25T15:02:53.797Z,5.57
2017-05-25T15:05:21.069Z,5.00
2017-05-25T15:07:48.255Z,5.73
2017-05-25T15:10:15.473Z,5.87
2017-05-25T15:12:42.663Z,6.70
2017-05-25T15:15:09.852Z,6.53
2017-05-25T15:17:37.024Z,6.20
2017-05-25T15:20:04.216Z,6.55
2017-05-25T15:22:31.419Z,6.25
2017-05-25T15:24:58.585Z,6.37
2017-05-25T15:27:25.758Z,7.80
2017-05-25T15:29:52.934Z,6.90
2017-05-25T15:32:20.105Z,7.05
2017-05-25T15:34:47.268Z,6.50
2017-05-25T15:37:14.511Z,6.28
2017-05-25T15:39:41.712Z,6.60
2017-05-25T15:42:08.902Z,7.02
2017-05-25T15:44:36.077Z,7.18
2017-05-25T15:47:03.248Z,7.57
2017-05-25T15:49:30.445Z,7.78
2017-05-25T15:51:57.625Z,7.32
2017-05-25T15:54:24.810Z,6.87
2017-05-25T15:56:51.986Z,6.40
2017-05-25T15:59:19.271Z,7.30
2017-05-25T16:01:46.432Z,6.10
2017-05-25T16:04:13.622Z,5.98
2017-05-25T16:06:40.847Z,6.34
2017-05-25T16:09:07.999Z,6.72
2017-05-25T16:11:35.179Z,6.60
2017-05-25T16:14:02.396Z,6.25
2017-05-25T16:16:29.603Z,7.88
2017-05-25T16:18:56.786Z,6.60
2017-05-25T16:21:23.980Z,6.65
2017-05-25T16:23:51.125Z,6.43
2017-05-25T16:26:18.304Z,5.70
2017-05-25T16:28:45.634Z,5.60
2017-05-25T16:31:12.837Z,6.10
2017-05-25T16:33:40.327Z,6.82
2017-05-25T16:36:07.524Z,7.05
2017-05-25T16:38:34.715Z,6.42
2017-05-25T16:41:02.002Z,6.07
2017-05-25T16:43:29.908Z,6.15
2017-05-25T16:45:57.168Z,5.90
2017-05-25T16:48:24.324Z,5.87
2017-05-25T16:50:51.503Z,6.05
2017-05-25T16:53:18.697Z,13.30
2017-05-25T16:55:45.959Z,8.82
2017-05-25T16:58:13.182Z,6.40
2017-05-25T17:00:40.402Z,6.32
2017-05-25T17:03:07.676Z,9.37
2017-05-25T17:05:34.887Z,6.00
2017-05-25T17:08:02.107Z,6.25
2017-05-25T17:10:29.327Z,6.36
2017-05-25T17:12:56.524Z,6.90
2017-05-25T17:15:23.741Z,7.57
2017-05-25T17:17:51.119Z,7.93
2017-05-25T17:20:18.391Z,9.05
2017-05-25T17:22:45.685Z,8.65
2017-05-25T17:25:12.972Z,7.92
2017-05-25T17:27:40.319Z,8.37
2017-05-25T17:30:07.591Z,9.65
2017-05-25T17:32:34.865Z,9.72
2017-05-25T17:35:02.141Z,10.10
2017-05-25T17:37:29.502Z,11.88
2017-05-25T17:39:56.708Z,12.92
2017-05-25T17:42:23.964Z,13.60
2017-05-25T17:44:51.238Z,14.67
2017-05-25T17:47:18.462Z,14.40
2017-05-25T17:49:45.714Z,14.48
2017-05-25T17:52:13.024Z,15.58
2017-05-25T17:54:40.253Z,16.12
2017-05-25T17:57:07.465Z,16.22
2017-05-25T17:59:34.718Z,15.80
2017-05-25T18:02:02.073Z,16.00
2017-05-25T18:04:29.257Z,16.27
2017-05-25T18:06:56.465Z,16.17
2017-05-25T18:09:23.772Z,16.58
2017-05-25T18:11:51.949Z,17.00
2017-05-25T18:14:19.153Z,17.40
2017-05-25T18:16:46.356Z,18.32
2017-05-25T18:19:13.587Z,18.08
2017-05-25T18:21:40.819Z,18.00
2017-05-25T18:24:08.031Z,16.82
2017-05-25T18:26:35.245Z,18.25
2017-05-25T18:29:02.974Z,17.32
2017-05-25T18:31:30.159Z,17.77
2017-05-25T18:33:57.378Z,20.97
2017-05-25T18:36:24.812Z,24.50
2017-05-25T18:38:52.007Z,18.22
2017-05-25T18:41:19.260Z,17.97
2017-05-25T18:43:46.635Z,18.65
2017-05-25T18:46:13.960Z,15.73
2017-05-25T18:48:41.289Z,15.77
2017-05-25T18:51:08.560Z,16.80
2017-05-25T18:53:35.836Z,15.75
2017-05-25T18:56:03.044Z,17.36
2017-05-25T18:58:30.217Z,15.62
2017-05-25T19:00:57.414Z,15.68
2017-05-25T19:03:25.157Z,15.68
2017-05-25T19:05:52.318Z,16.12
2017-05-25T19:08:19.514Z,15.70
2017-05-25T19:10:46.910Z,17.52
2017-05-25T19:13:14.643Z,15.55
2017-05-25T19:15:42.795Z,15.78
2017-05-25T19:18:10.215Z,15.50
2017-05-25T19:20:37.813Z,16.08
2017-05-25T19:23:05.070Z,14.57
2017-05-25T19:25:32.355Z,15.20
2017-05-25T19:27:59.866Z,25.63
2017-05-25T19:30:27.198Z,35.73
2017-05-25T19:32:54.472Z,40.48
2017-05-25T19:35:21.746Z,32.07
2017-05-25T19:37:48.918Z,24.30
2017-05-25T19:40:16.078Z,21.23
2017-05-25T19:42:43.568Z,18.53
2017-05-25T19:45:10.767Z,17.07
2017-05-25T19:47:37.973Z,16.65
2017-05-25T19:50:05.199Z,16.60
2017-05-25T19:52:32.461Z,16.95
2017-05-25T19:54:59.850Z,16.07
2017-05-25T19:57:27.074Z,17.42
2017-05-25T19:59:54.248Z,17.37
2017-05-25T20:02:21.448Z,16.32
2017-05-25T20:04:48.730Z,17.83
2017-05-25T20:07:15.927Z,16.20
2017-05-25T20:09:43.363Z,17.07
2017-05-25T20:12:10.655Z,16.77
2017-05-25T20:14:37.930Z,17.92
2017-05-25T20:17:05.204Z,17.15
2017-05-25T20:19:32.478Z,16.88
2017-05-25T20:21:59.754Z,18.13
2017-05-25T20:24:27.133Z,19.53
2017-05-25T20:26:54.505Z,17.70
2017-05-25T20:29:21.882Z,19.50
2017-05-25T20:31:49.159Z,22.57
2017-05-25T20:34:16.431Z,19.97
2017-05-25T20:36:43.792Z,19.28
2017-05-25T20:39:10.998Z,17.58
2017-05-25T20:41:38.192Z,17.55
2017-05-25T20:44:05.406Z,19.85
2017-05-25T20:46:32.666Z,18.97
2017-05-25T20:48:59.850Z,18.32
2017-05-25T20:51:27.150Z,16.60
2017-05-25T20:53:54.421Z,17.95
2017-05-25T20:56:21.591Z,19.57
2017-05-25T20:58:48.836Z,17.13
2017-05-25T21:01:16.143Z,17.40
2017-05-25T21:03:43.340Z,18.18
2017-05-25T21:06:10.572Z,18.62
2017-05-25T21:08:37.809Z,17.37
2017-05-25T21:11:05.135Z,18.42
2017-05-25T21:13:32.414Z,17.32
2017-05-25T21:15:59.571Z,18.80
2017-05-25T21:18:26.840Z,17.62
2017-05-25T21:20:54.143Z,18.40
2017-05-25T21:23:21.381Z,17.48
2017-05-25T21:25:48.592Z,18.84
2017-05-25T21:28:15.853Z,16.92
2017-05-25T21:30:43.044Z,18.88
2017-05-25T21:33:10.266Z,17.33
2017-05-25T21:35:37.585Z,16.13
2017-05-25T21:38:04.821Z,18.80
2017-05-25T21:40:32.123Z,16.98
2017-05-25T21:42:59.295Z,16.47
2017-05-25T21:45:26.564Z,15.93
2017-05-25T21:47:53.734Z,16.65
2017-05-25T21:50:21.013Z,16.55
2017-05-25T21:52:48.285Z,18.05
2017-05-25T21:55:15.572Z,28.27
2017-05-25T21:57:42.768Z,33.77
2017-05-25T22:00:09.987Z,45.03
2017-05-25T22:02:37.171Z,24.12
2017-05-25T22:05:04.395Z,23.30
2017-05-25T22:07:31.596Z,21.48
2017-05-25T22:09:58.856Z,21.33
2017-05-25T22:12:26.053Z,20.82
2017-05-25T22:14:53.249Z,22.27
2017-05-25T22:17:20.460Z,19.12
2017-05-25T22:19:47.795Z,18.70
2017-05-25T22:22:15.069Z,19.26
2017-05-25T22:24:42.340Z,19.54
2017-05-25T22:27:09.611Z,19.04
2017-05-25T22:29:36.810Z,18.13
2017-05-25T22:32:04.265Z,18.22
2017-05-25T22:34:31.486Z,17.84
2017-05-25T22:36:59.217Z,17.63
2017-05-25T22:39:26.402Z,17.02
2017-05-25T22:41:53.597Z,17.07
2017-05-25T22:44:20.839Z,18.82
2017-05-25T22:46:48.118Z,18.02
2017-05-25T22:49:15.285Z,18.26
2017-05-25T22:51:42.445Z,18.15
2017-05-25T22:54:09.638Z,19.78
2017-05-25T22:56:36.802Z,19.35
2017-05-25T22:59:03.959Z,19.98
2017-05-25T23:01:31.146Z,19.38
2017-05-25T23:03:58.316Z,19.65
2017-05-25T23:06:25.592Z,19.67
2017-05-25T23:08:52.866Z,19.16
2017-05-25T23:11:20.032Z,19.10
2017-05-25T23:13:47.212Z,19.05
2017-05-25T23:16:14.391Z,18.48
2017-05-25T23:18:41.567Z,19.35
2017-05-25T23:21:08.760Z,18.70
2017-05-25T23:23:35.948Z,18.90
2017-05-25T23:26:03.141Z,17.77
2017-05-25T23:28:30.298Z,19.25
2017-05-25T23:30:57.515Z,19.17
2017-05-25T23:33:24.686Z,19.53
2017-05-25T23:35:51.876Z,18.62
2017-05-25T23:38:19.076Z,18.78
2017-05-25T23:40:46.260Z,19.87
2017-05-25T23:43:13.413Z,18.75
2017-05-25T23:45:40.585Z,19.85
2017-05-25T23:48:07.757Z,18.48
2017-05-25T23:50:34.929Z,18.90
2017-05-25T23:53:02.085Z,18.83
2017-05-25T23:55:29.256Z,19.32
2017-05-25T23:57:56.611Z,19.00
